sensor_id;sensor_type;location;lat;lon;timestamp;pressure;altitude;pressure_sealevel;temperature;humidity
8075;BME280;4080;42.676;23.372;2023-07-22T00:02:23;95073.03;;;26.86;83.93
8075;BME280;4080;42.676;23.372;2023-07-22T00:04:50;95081.16;;;26.86;83.59
8075;BME280;4080;42.676;23.372;2023-07-22T00:07:17;95050.78;;;26.66;83.30
8075;BME280;4080;42.676;23.372;2023-07-22T00:09:46;95089.34;;;26.93;83.49
8075;BME280;4080;42.676;23.372;2023-07-22T00:12:14;95095.25;;;26.99;84.38
8075;BME280;4080;42.676;23.372;2023-07-22T00:14:41;95094.81;;;26.97;84.65
8075;BME280;4080;42.676;23.372;2023-07-22T00:17:08;95092.41;;;26.91;85.00
8075;BME280;4080;42.676;23.372;2023-07-22T00:19:35;95097.38;;;26.86;86.00
8075;BME280;4080;42.676;23.372;2023-07-22T00:22:02;95099.72;;;26.87;86.13
8075;BME280;4080;42.676;23.372;2023-07-22T00:24:29;95093.53;;;26.87;86.67
8075;BME280;4080;42.676;23.372;2023-07-22T00:26:57;95092.31;;;26.81;87.91
8075;BME280;4080;42.676;23.372;2023-07-22T00:29:23;95089.16;;;26.75;88.37
8075;BME280;4080;42.676;23.372;2023-07-22T00:31:50;95092.59;;;26.72;88.46
8075;BME280;4080;42.676;23.372;2023-07-22T00:34:17;95092.53;;;26.65;89.45
8075;BME280;4080;42.676;23.372;2023-07-22T00:36:43;95092.44;;;26.61;89.63
8075;BME280;4080;42.676;23.372;2023-07-22T00:39:11;95096.25;;;26.57;90.19
8075;BME280;4080;42.676;23.372;2023-07-22T00:41:39;95093.09;;;26.51;90.69
8075;BME280;4080;42.676;23.372;2023-07-22T00:44:09;95092.28;;;26.47;91.13
8075;BME280;4080;42.676;23.372;2023-07-22T00:46:36;95093.03;;;26.44;91.42
8075;BME280;4080;42.676;23.372;2023-07-22T00:49:04;95098.03;;;26.42;92.00
8075;BME280;4080;42.676;23.372;2023-07-22T00:51:31;95112.22;;;26.36;92.34
8075;BME280;4080;42.676;23.372;2023-07-22T00:53:58;95101.00;;;26.34;93.18
8075;BME280;4080;42.676;23.372;2023-07-22T00:56:25;95101.47;;;26.39;93.25
8075;BME280;4080;42.676;23.372;2023-07-22T00:58:52;95110.72;;;26.38;93.51
8075;BME280;4080;42.676;23.372;2023-07-22T01:01:20;95111.88;;;26.37;93.55
8075;BME280;4080;42.676;23.372;2023-07-22T01:03:47;95112.91;;;26.33;94.59
8075;BME280;4080;42.676;23.372;2023-07-22T01:06:14;95107.94;;;26.08;93.75
8075;BME280;4080;42.676;23.372;2023-07-22T01:08:42;95096.81;;;25.87;93.31
8075;BME280;4080;42.676;23.372;2023-07-22T01:11:09;95090.63;;;25.63;92.79
8075;BME280;4080;42.676;23.372;2023-07-22T01:13:35;95084.88;;;25.42;94.13
8075;BME280;4080;42.676;23.372;2023-07-22T01:16:02;95079.22;;;25.28;95.41
8075;BME280;4080;42.676;23.372;2023-07-22T01:18:31;95078.69;;;25.19;96.34
8075;BME280;4080;42.676;23.372;2023-07-22T01:20:58;95099.50;;;25.18;95.42
8075;BME280;4080;42.676;23.372;2023-07-22T01:23:26;95089.13;;;25.20;95.64
8075;BME280;4080;42.676;23.372;2023-07-22T01:25:53;95092.59;;;25.21;95.51
8075;BME280;4080;42.676;23.372;2023-07-22T01:28:21;95088.69;;;25.18;95.43
8075;BME280;4080;42.676;23.372;2023-07-22T01:30:48;95086.88;;;25.03;97.37
8075;BME280;4080;42.676;23.372;2023-07-22T01:33:15;95079.13;;;25.01;97.58
8075;BME280;4080;42.676;23.372;2023-07-22T01:35:41;95067.56;;;25.01;96.11
8075;BME280;4080;42.676;23.372;2023-07-22T01:38:08;95066.84;;;25.04;96.63
8075;BME280;4080;42.676;23.372;2023-07-22T01:40:36;95071.72;;;25.18;95.54
8075;BME280;4080;42.676;23.372;2023-07-22T01:43:03;95065.00;;;25.31;95.26
8075;BME280;4080;42.676;23.372;2023-07-22T01:45:30;95065.09;;;25.38;94.61
8075;BME280;4080;42.676;23.372;2023-07-22T01:47:57;95069.56;;;25.27;93.93
8075;BME280;4080;42.676;23.372;2023-07-22T01:50:24;95069.50;;;25.23;94.77
8075;BME280;4080;42.676;23.372;2023-07-22T01:52:51;95069.56;;;25.27;93.98
8075;BME280;4080;42.676;23.372;2023-07-22T01:55:17;95053.66;;;25.22;94.09
8075;BME280;4080;42.676;23.372;2023-07-22T01:57:45;95062.59;;;25.26;94.37
8075;BME280;4080;42.676;23.372;2023-07-22T02:00:13;95057.19;;;25.26;94.23
8075;BME280;4080;42.676;23.372;2023-07-22T02:02:41;95062.59;;;25.26;95.31
8075;BME280;4080;42.676;23.372;2023-07-22T02:05:08;95060.00;;;25.33;96.35
8075;BME280;4080;42.676;23.372;2023-07-22T02:07:35;95055.09;;;25.38;97.75
8075;BME280;4080;42.676;23.372;2023-07-22T02:10:02;95052.38;;;25.38;98.34
8075;BME280;4080;42.676;23.372;2023-07-22T02:12:29;95055.75;;;25.32;98.54
8075;BME280;4080;42.676;23.372;2023-07-22T02:14:57;95058.81;;;25.30;98.73
8075;BME280;4080;42.676;23.372;2023-07-22T02:17:24;95059.22;;;25.32;99.78
8075;BME280;4080;42.676;23.372;2023-07-22T02:19:52;95068.59;;;25.38;99.77
8075;BME280;4080;42.676;23.372;2023-07-22T02:22:18;95072.53;;;25.41;100.00
8075;BME280;4080;42.676;23.372;2023-07-22T02:24:45;95068.16;;;25.36;100.00
8075;BME280;4080;42.676;23.372;2023-07-22T02:27:12;95070.41;;;25.31;100.00
8075;BME280;4080;42.676;23.372;2023-07-22T02:29:38;95065.72;;;25.28;100.00
8075;BME280;4080;42.676;23.372;2023-07-22T02:32:07;95073.69;;;25.21;100.00
8075;BME280;4080;42.676;23.372;2023-07-22T02:34:34;95069.38;;;25.16;100.00
8075;BME280;4080;42.676;23.372;2023-07-22T02:37:03;95074.31;;;25.11;100.00
8075;BME280;4080;42.676;23.372;2023-07-22T02:39:29;95075.78;;;25.08;100.00
8075;BME280;4080;42.676;23.372;2023-07-22T02:41:56;95075.44;;;24.90;100.00
8075;BME280;4080;42.676;23.372;2023-07-22T02:44:23;95075.78;;;24.89;100.00
8075;BME280;4080;42.676;23.372;2023-07-22T02:46:49;95064.94;;;24.85;100.00
8075;BME280;4080;42.676;23.372;2023-07-22T02:49:17;95076.69;;;24.77;100.00
8075;BME280;4080;42.676;23.372;2023-07-22T02:51:44;95074.59;;;24.67;100.00
8075;BME280;4080;42.676;23.372;2023-07-22T02:54:11;95075.44;;;24.71;100.00
8075;BME280;4080;42.676;23.372;2023-07-22T02:56:39;95073.66;;;24.78;100.00
8075;BME280;4080;42.676;23.372;2023-07-22T02:59:06;95074.59;;;24.86;100.00
8075;BME280;4080;42.676;23.372;2023-07-22T03:01:34;95077.91;;;24.80;100.00
8075;BME280;4080;42.676;23.372;2023-07-22T03:04:01;95075.00;;;24.69;100.00
8075;BME280;4080;42.676;23.372;2023-07-22T03:06:29;95084.88;;;24.61;100.00
8075;BME280;4080;42.676;23.372;2023-07-22T03:08:56;95081.13;;;24.66;100.00
8075;BME280;4080;42.676;23.372;2023-07-22T03:11:24;95085.50;;;24.74;100.00
8075;BME280;4080;42.676;23.372;2023-07-22T03:13:52;95077.13;;;24.79;100.00
8075;BME280;4080;42.676;23.372;2023-07-22T03:16:20;95082.09;;;24.77;100.00
8075;BME280;4080;42.676;23.372;2023-07-22T03:18:46;95085.16;;;24.75;100.00
8075;BME280;4080;42.676;23.372;2023-07-22T03:21:13;95082.81;;;24.74;100.00
8075;BME280;4080;42.676;23.372;2023-07-22T03:23:41;95074.78;;;24.77;100.00
8075;BME280;4080;42.676;23.372;2023-07-22T03:26:08;95082.75;;;24.90;100.00
8075;BME280;4080;42.676;23.372;2023-07-22T03:28:34;95082.88;;;24.97;100.00
8075;BME280;4080;42.676;23.372;2023-07-22T03:31:01;95085.56;;;24.97;100.00
8075;BME280;4080;42.676;23.372;2023-07-22T03:33:29;95097.72;;;24.87;100.00
8075;BME280;4080;42.676;23.372;2023-07-22T03:35:56;95084.13;;;24.80;100.00
8075;BME280;4080;42.676;23.372;2023-07-22T03:38:23;95097.50;;;24.76;100.00
8075;BME280;4080;42.676;23.372;2023-07-22T03:40:51;95103.25;;;24.75;100.00
8075;BME280;4080;42.676;23.372;2023-07-22T03:43:18;95105.94;;;24.75;100.00
8075;BME280;4080;42.676;23.372;2023-07-22T03:45:45;95109.44;;;24.75;100.00
8075;BME280;4080;42.676;23.372;2023-07-22T03:48:11;95105.25;;;24.78;100.00
8075;BME280;4080;42.676;23.372;2023-07-22T03:50:38;95127.00;;;24.85;100.00
8075;BME280;4080;42.676;23.372;2023-07-22T03:53:05;95117.81;;;24.90;100.00
8075;BME280;4080;42.676;23.372;2023-07-22T03:55:31;95119.75;;;24.89;100.00
8075;BME280;4080;42.676;23.372;2023-07-22T03:58:00;95122.09;;;24.91;100.00
8075;BME280;4080;42.676;23.372;2023-07-22T04:00:27;95124.72;;;24.87;100.00
8075;BME280;4080;42.676;23.372;2023-07-22T04:02:53;95129.75;;;24.89;100.00
8075;BME280;4080;42.676;23.372;2023-07-22T04:05:20;95142.47;;;24.88;100.00
8075;BME280;4080;42.676;23.372;2023-07-22T04:07:47;95136.28;;;24.88;100.00
8075;BME280;4080;42.676;23.372;2023-07-22T04:10:13;95137.72;;;25.01;100.00
8075;BME280;4080;42.676;23.372;2023-07-22T04:12:40;95129.66;;;25.24;100.00
8075;BME280;4080;42.676;23.372;2023-07-22T04:15:09;95130.53;;;25.51;100.00
8075;BME280;4080;42.676;23.372;2023-07-22T04:17:37;95134.75;;;25.71;100.00
8075;BME280;4080;42.676;23.372;2023-07-22T04:20:04;95132.41;;;25.92;100.00
8075;BME280;4080;42.676;23.372;2023-07-22T04:22:33;95131.22;;;26.16;100.00
8075;BME280;4080;42.676;23.372;2023-07-22T04:25:00;95130.84;;;26.41;100.00
8075;BME280;4080;42.676;23.372;2023-07-22T04:27:27;95134.47;;;26.52;100.00
8075;BME280;4080;42.676;23.372;2023-07-22T04:29:54;95128.94;;;26.71;100.00
8075;BME280;4080;42.676;23.372;2023-07-22T04:32:22;95140.44;;;26.95;100.00
8075;BME280;4080;42.676;23.372;2023-07-22T04:34:49;95135.63;;;27.14;100.00
8075;BME280;4080;42.676;23.372;2023-07-22T04:37:16;95151.81;;;27.44;100.00
8075;BME280;4080;42.676;23.372;2023-07-22T04:39:47;95150.50;;;27.65;99.66
8075;BME280;4080;42.676;23.372;2023-07-22T04:42:14;95146.34;;;27.78;98.95
8075;BME280;4080;42.676;23.372;2023-07-22T04:44:42;95160.09;;;27.99;97.52
8075;BME280;4080;42.676;23.372;2023-07-22T04:47:09;95146.25;;;28.15;95.44
8075;BME280;4080;42.676;23.372;2023-07-22T04:49:37;95161.97;;;28.43;94.05
8075;BME280;4080;42.676;23.372;2023-07-22T04:52:05;95153.56;;;28.59;92.72
8075;BME280;4080;42.676;23.372;2023-07-22T04:54:32;95154.31;;;28.59;91.80
8075;BME280;4080;42.676;23.372;2023-07-22T04:56:59;95149.97;;;28.44;93.01
8075;BME280;4080;42.676;23.372;2023-07-22T04:59:26;95160.09;;;28.47;92.49
8075;BME280;4080;42.676;23.372;2023-07-22T05:01:53;95162.47;;;28.59;90.90
8075;BME280;4080;42.676;23.372;2023-07-22T05:04:20;95168.75;;;28.77;89.29
8075;BME280;4080;42.676;23.372;2023-07-22T05:06:48;95174.31;;;28.92;89.15
8075;BME280;4080;42.676;23.372;2023-07-22T05:09:15;95174.31;;;28.99;87.47
8075;BME280;4080;42.676;23.372;2023-07-22T05:11:42;95178.22;;;29.05;87.78
8075;BME280;4080;42.676;23.372;2023-07-22T05:14:08;95170.56;;;29.25;86.75
8075;BME280;4080;42.676;23.372;2023-07-22T05:16:35;95183.03;;;29.44;85.83
8075;BME280;4080;42.676;23.372;2023-07-22T05:19:02;95168.34;;;29.59;83.59
8075;BME280;4080;42.676;23.372;2023-07-22T05:21:30;95143.47;;;29.64;82.00
8075;BME280;4080;42.676;23.372;2023-07-22T05:23:58;95169.97;;;30.06;80.97
8075;BME280;4080;42.676;23.372;2023-07-22T05:26:25;95176.94;;;30.25;79.69
8075;BME280;4080;42.676;23.372;2023-07-22T05:28:51;95164.91;;;30.37;78.90
8075;BME280;4080;42.676;23.372;2023-07-22T05:31:18;95179.28;;;30.44;77.05
8075;BME280;4080;42.676;23.372;2023-07-22T05:33:45;95179.25;;;30.48;77.32
8075;BME280;4080;42.676;23.372;2023-07-22T05:36:12;95180.03;;;30.55;77.86
8075;BME280;4080;42.676;23.372;2023-07-22T05:38:39;95183.16;;;30.72;77.45
8075;BME280;4080;42.676;23.372;2023-07-22T05:41:07;95185.41;;;30.91;75.77
8075;BME280;4080;42.676;23.372;2023-07-22T05:43:33;95165.97;;;30.89;75.25
8075;BME280;4080;42.676;23.372;2023-07-22T05:46:00;95176.78;;;31.14;74.35
8075;BME280;4080;42.676;23.372;2023-07-22T05:48:27;95189.63;;;31.24;72.94
8075;BME280;4080;42.676;23.372;2023-07-22T05:50:53;95188.44;;;31.22;72.99
8075;BME280;4080;42.676;23.372;2023-07-22T05:53:20;95186.50;;;31.26;72.86
8075;BME280;4080;42.676;23.372;2023-07-22T05:55:47;95177.94;;;31.20;72.92
8075;BME280;4080;42.676;23.372;2023-07-22T05:58:18;95183.75;;;31.22;73.31
8075;BME280;4080;42.676;23.372;2023-07-22T06:00:45;95193.47;;;31.34;72.48
8075;BME280;4080;42.676;23.372;2023-07-22T06:03:12;95192.25;;;31.42;72.33
8075;BME280;4080;42.676;23.372;2023-07-22T06:05:39;95189.91;;;31.44;71.01
8075;BME280;4080;42.676;23.372;2023-07-22T06:08:05;95199.25;;;31.43;72.41
8075;BME280;4080;42.676;23.372;2023-07-22T06:10:32;95200.34;;;31.60;72.40
8075;BME280;4080;42.676;23.372;2023-07-22T06:12:59;95206.44;;;31.81;69.47
8075;BME280;4080;42.676;23.372;2023-07-22T06:15:27;95213.47;;;31.83;70.14
8075;BME280;4080;42.676;23.372;2023-07-22T06:17:53;95214.56;;;31.96;67.75
8075;BME280;4080;42.676;23.372;2023-07-22T06:20:20;95220.28;;;32.12;67.42
8075;BME280;4080;42.676;23.372;2023-07-22T06:22:47;95221.38;;;32.25;68.08
8075;BME280;4080;42.676;23.372;2023-07-22T06:25:14;95222.81;;;32.40;66.86
8075;BME280;4080;42.676;23.372;2023-07-22T06:27:40;95228.94;;;32.55;66.86
8075;BME280;4080;42.676;23.372;2023-07-22T06:30:08;95231.13;;;32.71;66.55
8075;BME280;4080;42.676;23.372;2023-07-22T06:32:38;95226.28;;;32.89;64.68
8075;BME280;4080;42.676;23.372;2023-07-22T06:35:05;95185.56;;;32.61;63.79
8075;BME280;4080;42.676;23.372;2023-07-22T06:37:32;95238.84;;;32.83;65.01
8075;BME280;4080;42.676;23.372;2023-07-22T06:39:59;95239.16;;;32.92;64.64
8075;BME280;4080;42.676;23.372;2023-07-22T06:42:26;95241.78;;;32.99;64.26
8075;BME280;4080;42.676;23.372;2023-07-22T06:44:52;95241.66;;;33.14;65.09
8075;BME280;4080;42.676;23.372;2023-07-22T06:47:19;95243.03;;;33.29;65.62
8075;BME280;4080;42.676;23.372;2023-07-22T06:49:47;95250.66;;;33.48;63.82
8075;BME280;4080;42.676;23.372;2023-07-22T06:52:14;95247.47;;;33.53;63.83
8075;BME280;4080;42.676;23.372;2023-07-22T06:54:40;95242.72;;;33.23;63.69
8075;BME280;4080;42.676;23.372;2023-07-22T06:57:07;95232.91;;;33.26;63.13
8075;BME280;4080;42.676;23.372;2023-07-22T06:59:34;95210.03;;;33.13;62.69
8075;BME280;4080;42.676;23.372;2023-07-22T07:02:01;95204.03;;;33.25;62.94
8075;BME280;4080;42.676;23.372;2023-07-22T07:04:28;95230.22;;;33.56;62.75
8075;BME280;4080;42.676;23.372;2023-07-22T07:06:56;95228.81;;;33.75;59.95
8075;BME280;4080;42.676;23.372;2023-07-22T07:09:22;95229.03;;;33.88;60.38
8075;BME280;4080;42.676;23.372;2023-07-22T07:11:49;95235.25;;;33.92;60.84
8075;BME280;4080;42.676;23.372;2023-07-22T07:14:16;95230.47;;;33.96;58.05
8075;BME280;4080;42.676;23.372;2023-07-22T07:16:43;95221.84;;;34.01;59.35
8075;BME280;4080;42.676;23.372;2023-07-22T07:19:10;95229.50;;;33.83;58.62
8075;BME280;4080;42.676;23.372;2023-07-22T07:21:36;95212.69;;;33.54;60.16
8075;BME280;4080;42.676;23.372;2023-07-22T07:24:05;95217.88;;;33.75;60.39
8075;BME280;4080;42.676;23.372;2023-07-22T07:26:32;95222.19;;;34.03;58.91
8075;BME280;4080;42.676;23.372;2023-07-22T07:28:58;95223.69;;;34.35;57.98
8075;BME280;4080;42.676;23.372;2023-07-22T07:31:25;95207.06;;;34.45;55.74
8075;BME280;4080;42.676;23.372;2023-07-22T07:33:52;95213.25;;;34.49;55.23
8075;BME280;4080;42.676;23.372;2023-07-22T07:36:19;95211.06;;;34.41;56.00
8075;BME280;4080;42.676;23.372;2023-07-22T07:38:46;95213.78;;;34.41;55.99
8075;BME280;4080;42.676;23.372;2023-07-22T07:41:14;95208.78;;;34.59;55.22
8075;BME280;4080;42.676;23.372;2023-07-22T07:43:41;95174.88;;;34.26;56.01
8075;BME280;4080;42.676;23.372;2023-07-22T07:46:13;95209.88;;;34.42;54.47
8075;BME280;4080;42.676;23.372;2023-07-22T07:48:42;95209.38;;;34.47;55.06
8075;BME280;4080;42.676;23.372;2023-07-22T07:51:09;95206.28;;;34.68;55.96
8075;BME280;4080;42.676;23.372;2023-07-22T07:53:36;95217.47;;;34.77;53.93
8075;BME280;4080;42.676;23.372;2023-07-22T07:56:03;95196.72;;;34.76;54.13
8075;BME280;4080;42.676;23.372;2023-07-22T07:58:31;95194.94;;;34.90;54.76
8075;BME280;4080;42.676;23.372;2023-07-22T08:00:57;95192.56;;;35.11;53.19
8075;BME280;4080;42.676;23.372;2023-07-22T08:03:24;95193.41;;;35.28;53.18
8075;BME280;4080;42.676;23.372;2023-07-22T08:05:51;95196.44;;;35.54;51.39
8075;BME280;4080;42.676;23.372;2023-07-22T08:08:17;95196.81;;;35.72;51.82
8075;BME280;4080;42.676;23.372;2023-07-22T08:10:44;95198.94;;;35.84;50.70
8075;BME280;4080;42.676;23.372;2023-07-22T08:13:11;95198.34;;;35.93;49.09
8075;BME280;4080;42.676;23.372;2023-07-22T08:15:39;95190.63;;;35.88;50.62
8075;BME280;4080;42.676;23.372;2023-07-22T08:18:07;95175.00;;;35.85;50.39
8075;BME280;4080;42.676;23.372;2023-07-22T08:20:34;95193.28;;;36.07;49.83
8075;BME280;4080;42.676;23.372;2023-07-22T08:23:00;95187.47;;;36.22;49.64
8075;BME280;4080;42.676;23.372;2023-07-22T08:25:27;95192.28;;;36.34;49.19
8075;BME280;4080;42.676;23.372;2023-07-22T08:27:54;95189.72;;;36.43;47.69
8075;BME280;4080;42.676;23.372;2023-07-22T08:30:20;95191.50;;;36.50;47.91
8075;BME280;4080;42.676;23.372;2023-07-22T08:32:49;95196.06;;;36.56;47.83
8075;BME280;4080;42.676;23.372;2023-07-22T08:35:16;95186.94;;;36.59;48.12
8075;BME280;4080;42.676;23.372;2023-07-22T08:37:43;95187.09;;;36.68;47.72
8075;BME280;4080;42.676;23.372;2023-07-22T08:40:12;95187.34;;;36.74;46.77
8075;BME280;4080;42.676;23.372;2023-07-22T08:42:40;95179.56;;;36.56;44.61
8075;BME280;4080;42.676;23.372;2023-07-22T08:45:10;95167.91;;;36.36;46.10
8075;BME280;4080;42.676;23.372;2023-07-22T08:47:39;95162.94;;;36.31;46.43
8075;BME280;4080;42.676;23.372;2023-07-22T08:50:14;95160.88;;;36.19;45.70
8075;BME280;4080;42.676;23.372;2023-07-22T08:52:41;95156.25;;;36.16;46.53
8075;BME280;4080;42.676;23.372;2023-07-22T08:55:09;95146.78;;;36.00;46.72
8075;BME280;4080;42.676;23.372;2023-07-22T08:57:37;95141.72;;;35.99;47.95
8075;BME280;4080;42.676;23.372;2023-07-22T09:00:06;95143.72;;;35.82;46.14
8075;BME280;4080;42.676;23.372;2023-07-22T09:02:33;95143.31;;;35.80;47.23
8075;BME280;4080;42.676;23.372;2023-07-22T09:05:00;95142.53;;;35.63;48.74
8075;BME280;4080;42.676;23.372;2023-07-22T09:07:28;95135.72;;;35.88;49.43
8075;BME280;4080;42.676;23.372;2023-07-22T09:09:56;95134.09;;;36.06;48.59
8075;BME280;4080;42.676;23.372;2023-07-22T09:12:24;95140.78;;;36.05;48.89
8075;BME280;4080;42.676;23.372;2023-07-22T09:14:52;95130.22;;;36.20;48.88
8075;BME280;4080;42.676;23.372;2023-07-22T09:17:19;95142.59;;;36.45;46.85
8075;BME280;4080;42.676;23.372;2023-07-22T09:19:46;95144.94;;;36.59;46.03
8075;BME280;4080;42.676;23.372;2023-07-22T09:22:12;95141.75;;;36.77;45.23
8075;BME280;4080;42.676;23.372;2023-07-22T09:24:40;95138.41;;;36.98;43.94
8075;BME280;4080;42.676;23.372;2023-07-22T09:27:07;95127.84;;;36.96;43.45
8075;BME280;4080;42.676;23.372;2023-07-22T09:29:35;95132.56;;;36.96;45.30
8075;BME280;4080;42.676;23.372;2023-07-22T09:32:02;95125.03;;;37.13;45.53
8075;BME280;4080;42.676;23.372;2023-07-22T09:34:29;95124.88;;;37.33;43.16
8075;BME280;4080;42.676;23.372;2023-07-22T09:36:57;95112.31;;;37.32;43.40
8075;BME280;4080;42.676;23.372;2023-07-22T09:39:26;95135.03;;;37.48;43.61
8075;BME280;4080;42.676;23.372;2023-07-22T09:44:43;95124.13;;;37.45;42.81
8075;BME280;4080;42.676;23.372;2023-07-22T09:47:10;95119.50;;;37.67;43.43
8075;BME280;4080;42.676;23.372;2023-07-22T09:49:40;95103.78;;;37.80;42.11
8075;BME280;4080;42.676;23.372;2023-07-22T09:52:09;95114.31;;;38.07;40.72
8075;BME280;4080;42.676;23.372;2023-07-22T09:54:46;95106.94;;;38.17;39.50
8075;BME280;4080;42.676;23.372;2023-07-22T09:57:16;95121.47;;;38.30;39.57
8075;BME280;4080;42.676;23.372;2023-07-22T09:59:43;95112.63;;;38.35;39.30
8075;BME280;4080;42.676;23.372;2023-07-22T10:02:11;95105.78;;;38.40;39.54
8075;BME280;4080;42.676;23.372;2023-07-22T10:04:39;95068.03;;;38.28;39.02
8075;BME280;4080;42.676;23.372;2023-07-22T10:07:07;95099.97;;;38.60;38.24
8075;BME280;4080;42.676;23.372;2023-07-22T10:09:37;95103.25;;;38.67;37.70
8075;BME280;4080;42.676;23.372;2023-07-22T10:12:05;95103.19;;;38.80;37.76
8075;BME280;4080;42.676;23.372;2023-07-22T10:14:34;95103.06;;;38.83;37.03
8075;BME280;4080;42.676;23.372;2023-07-22T10:17:01;95107.31;;;38.75;37.21
8075;BME280;4080;42.676;23.372;2023-07-22T10:19:29;95104.69;;;38.72;37.00
8075;BME280;4080;42.676;23.372;2023-07-22T10:21:58;95097.81;;;38.76;36.93
8075;BME280;4080;42.676;23.372;2023-07-22T10:24:26;95099.84;;;38.85;36.08
8075;BME280;4080;42.676;23.372;2023-07-22T10:26:54;95083.25;;;38.76;35.48
8075;BME280;4080;42.676;23.372;2023-07-22T10:29:21;95090.88;;;38.72;35.59
8075;BME280;4080;42.676;23.372;2023-07-22T10:31:49;95083.63;;;38.87;36.14
8075;BME280;4080;42.676;23.372;2023-07-22T10:34:20;95089.72;;;39.04;35.75
8075;BME280;4080;42.676;23.372;2023-07-22T10:36:47;95085.75;;;39.27;35.56
8075;BME280;4080;42.676;23.372;2023-07-22T10:39:24;95077.50;;;39.36;34.68
8075;BME280;4080;42.676;23.372;2023-07-22T10:41:59;95080.56;;;39.07;34.95
8075;BME280;4080;42.676;23.372;2023-07-22T10:44:26;95085.09;;;39.01;36.11
8075;BME280;4080;42.676;23.372;2023-07-22T10:46:58;95021.09;;;38.84;32.28
8075;BME280;4080;42.676;23.372;2023-07-22T10:49:28;95021.19;;;38.93;33.42
8075;BME280;4080;42.676;23.372;2023-07-22T10:52:11;95064.50;;;39.15;33.71
8075;BME280;4080;42.676;23.372;2023-07-22T10:54:38;95075.50;;;39.36;34.69
8075;BME280;4080;42.676;23.372;2023-07-22T10:57:23;95067.81;;;39.62;33.23
8075;BME280;4080;42.676;23.372;2023-07-22T10:59:51;95069.06;;;39.70;30.48
8075;BME280;4080;42.676;23.372;2023-07-22T11:02:25;95080.41;;;39.63;30.91
8075;BME280;4080;42.676;23.372;2023-07-22T11:04:52;95063.97;;;39.60;29.18
8075;BME280;4080;42.676;23.372;2023-07-22T11:07:30;95035.84;;;39.12;30.54
8075;BME280;4080;42.676;23.372;2023-07-22T11:09:57;95074.59;;;39.39;30.88
8075;BME280;4080;42.676;23.372;2023-07-22T11:12:24;95062.44;;;39.59;30.28
8075;BME280;4080;42.676;23.372;2023-07-22T11:14:53;95054.47;;;39.61;30.69
8075;BME280;4080;42.676;23.372;2023-07-22T11:17:30;95052.19;;;39.68;29.47
8075;BME280;4080;42.676;23.372;2023-07-22T11:19:59;95046.81;;;39.74;29.46
8075;BME280;4080;42.676;23.372;2023-07-22T11:22:26;95047.47;;;39.87;29.92
8075;BME280;4080;42.676;23.372;2023-07-22T11:24:54;95049.47;;;39.87;29.48
8075;BME280;4080;42.676;23.372;2023-07-22T11:27:21;95056.84;;;39.90;30.15
8075;BME280;4080;42.676;23.372;2023-07-22T11:29:48;95048.28;;;39.97;29.87
8075;BME280;4080;42.676;23.372;2023-07-22T11:32:15;95041.75;;;39.63;28.87
8075;BME280;4080;42.676;23.372;2023-07-22T11:34:44;95038.53;;;39.25;29.49
8075;BME280;4080;42.676;23.372;2023-07-22T11:37:11;95000.50;;;38.98;30.20
8075;BME280;4080;42.676;23.372;2023-07-22T11:39:38;95025.66;;;39.00;30.03
8075;BME280;4080;42.676;23.372;2023-07-22T11:42:07;95018.34;;;38.84;30.40
8075;BME280;4080;42.676;23.372;2023-07-22T11:44:34;95030.47;;;39.08;30.81
8075;BME280;4080;42.676;23.372;2023-07-22T11:47:02;95012.94;;;39.24;30.99
8075;BME280;4080;42.676;23.372;2023-07-22T11:49:30;95006.22;;;39.03;30.54
8075;BME280;4080;42.676;23.372;2023-07-22T11:51:59;94983.72;;;38.83;29.33
8075;BME280;4080;42.676;23.372;2023-07-22T11:54:27;95014.47;;;39.25;29.20
8075;BME280;4080;42.676;23.372;2023-07-22T11:56:54;95025.69;;;39.40;29.84
8075;BME280;4080;42.676;23.372;2023-07-22T11:59:37;95022.25;;;39.58;29.74
8075;BME280;4080;42.676;23.372;2023-07-22T12:02:04;95014.13;;;39.63;28.92
8075;BME280;4080;42.676;23.372;2023-07-22T12:04:32;95021.88;;;39.47;30.37
8075;BME280;4080;42.676;23.372;2023-07-22T12:07:01;95013.69;;;39.25;30.11
8075;BME280;4080;42.676;23.372;2023-07-22T12:09:30;95011.78;;;39.12;30.79
8075;BME280;4080;42.676;23.372;2023-07-22T12:11:57;95005.56;;;39.21;30.77
8075;BME280;4080;42.676;23.372;2023-07-22T12:14:32;95002.16;;;39.17;30.27
8075;BME280;4080;42.676;23.372;2023-07-22T12:17:01;95014.00;;;39.27;30.29
8075;BME280;4080;42.676;23.372;2023-07-22T12:19:28;95009.72;;;39.35;31.28
8075;BME280;4080;42.676;23.372;2023-07-22T12:21:55;94981.50;;;39.31;30.30
8075;BME280;4080;42.676;23.372;2023-07-22T12:24:23;95004.00;;;39.60;30.28
8075;BME280;4080;42.676;23.372;2023-07-22T12:26:50;95001.16;;;39.42;30.82
8075;BME280;4080;42.676;23.372;2023-07-22T12:29:17;94993.75;;;39.21;31.35
8075;BME280;4080;42.676;23.372;2023-07-22T12:31:43;94989.41;;;39.10;31.04
8075;BME280;4080;42.676;23.372;2023-07-22T12:34:10;94989.84;;;39.09;31.70
8075;BME280;4080;42.676;23.372;2023-07-22T12:36:37;94975.84;;;38.94;31.75
8075;BME280;4080;42.676;23.372;2023-07-22T12:39:04;94991.63;;;38.94;32.84
8075;BME280;4080;42.676;23.372;2023-07-22T12:41:32;94985.53;;;38.77;32.76
8075;BME280;4080;42.676;23.372;2023-07-22T12:43:59;94988.78;;;38.85;32.98
8075;BME280;4080;42.676;23.372;2023-07-22T12:46:25;94984.31;;;38.78;31.53
8075;BME280;4080;42.676;23.372;2023-07-22T12:48:52;94980.34;;;38.79;31.70
8075;BME280;4080;42.676;23.372;2023-07-22T12:51:19;94982.38;;;38.88;31.68
8075;BME280;4080;42.676;23.372;2023-07-22T12:53:45;94975.56;;;39.01;31.67
8075;BME280;4080;42.676;23.372;2023-07-22T12:56:12;94982.97;;;39.13;32.30
8075;BME280;4080;42.676;23.372;2023-07-22T12:58:40;94978.28;;;39.23;31.28
8075;BME280;4080;42.676;23.372;2023-07-22T13:01:07;94976.75;;;39.22;30.90
8075;BME280;4080;42.676;23.372;2023-07-22T13:03:34;94969.31;;;39.10;31.15
8075;BME280;4080;42.676;23.372;2023-07-22T13:06:00;94968.81;;;39.02;31.27
8075;BME280;4080;42.676;23.372;2023-07-22T13:08:27;94963.00;;;39.00;31.07
8075;BME280;4080;42.676;23.372;2023-07-22T13:10:54;94968.06;;;38.71;30.04
8075;BME280;4080;42.676;23.372;2023-07-22T13:13:20;94959.47;;;38.47;31.38
8075;BME280;4080;42.676;23.372;2023-07-22T13:15:48;94944.41;;;38.39;30.83